Time;durP1;ratioP1;P1;durP2;ratioP2;P2;SDS_P1;SDS_P2;PMS_P1;PMS_P2;Temp;Humidity;BMP_temperature;BMP_pressure;BME280_temperature;BME280_humidity;BME280_pressure;Samples;Min_cycle;Max_cycle;Signal;HPM_P1;HPM_P2
2022/03/24 00:02:27;;;;;;;61.47;34.10;;;;;;;4.62;100.00;103003.25;10408180;28;20081;-70
2022/03/24 00:07:28;;;;;;;70.30;37.70;;;;;;;4.56;100.00;103003.88;10355169;28;20049;-70
2022/03/24 00:12:28;;;;;;;62.58;35.50;;;;;;;4.41;100.00;102984.53;10387562;28;20028;-71
2022/03/24 00:17:30;;;;;;;64.00;35.92;;;;;;;4.43;100.00;102992.56;10371159;28;20022;-70
2022/03/24 00:22:31;;;;;;;66.93;35.75;;;;;;;4.28;100.00;102980.53;10381394;28;20045;-71
2022/03/24 00:27:31;;;;;;;69.60;36.70;;;;;;;4.27;100.00;102982.41;10354326;28;20064;-71
2022/03/24 00:32:32;;;;;;;68.53;36.58;;;;;;;4.17;100.00;102993.41;10354183;28;20034;-71
2022/03/24 00:37:32;;;;;;;67.68;39.00;;;;;;;4.15;100.00;102989.16;10404147;28;20110;-70
2022/03/24 00:42:35;;;;;;;68.30;36.28;;;;;;;4.08;100.00;102988.09;10386824;28;20053;-70
2022/03/24 00:47:36;;;;;;;67.82;37.30;;;;;;;3.98;100.00;102980.00;10387979;28;20516;-70
2022/03/24 00:52:41;;;;;;;63.17;36.72;;;;;;;3.96;100.00;102968.41;10410772;28;20044;-70
2022/03/24 00:57:44;;;;;;;66.07;36.65;;;;;;;3.91;100.00;102976.22;10379070;28;20028;-71
2022/03/24 01:02:45;;;;;;;67.93;38.92;;;;;;;3.82;100.00;102967.97;10400734;28;20061;-70
2022/03/24 01:07:46;;;;;;;72.93;39.28;;;;;;;3.72;100.00;102961.75;10378346;28;20037;-70
2022/03/24 01:12:47;;;;;;;74.80;40.60;;;;;;;3.67;100.00;102963.25;10377467;28;20042;-70
2022/03/24 01:17:47;;;;;;;69.07;40.22;;;;;;;3.68;100.00;102976.72;10376279;28;20109;-70
2022/03/24 01:22:48;;;;;;;72.35;38.00;;;;;;;3.64;100.00;102972.59;10393043;28;20030;-71
2022/03/24 01:27:49;;;;;;;71.00;37.55;;;;;;;3.48;100.00;102945.19;10359911;28;20037;-70
2022/03/24 01:32:50;;;;;;;74.95;40.22;;;;;;;3.52;100.00;102968.38;10394922;28;20070;-70
2022/03/24 01:37:50;;;;;;;72.00;39.92;;;;;;;3.54;100.00;102963.63;10378037;28;20026;-71
2022/03/24 01:42:51;;;;;;;68.68;40.85;;;;;;;3.46;100.00;102949.94;10360052;28;20030;-70
2022/03/24 01:47:51;;;;;;;73.70;42.13;;;;;;;3.47;100.00;102971.56;10358978;28;20034;-70
2022/03/24 01:52:53;;;;;;;72.53;41.53;;;;;;;3.38;100.00;102954.28;10375546;28;20489;-71
2022/03/24 01:57:53;;;;;;;81.30;41.25;;;;;;;3.10;100.00;102904.53;10375675;28;20448;-70
2022/03/24 02:02:54;;;;;;;77.40;43.75;;;;;;;3.38;100.00;102953.44;10374847;28;20046;-70
2022/03/24 02:07:56;;;;;;;79.95;44.25;;;;;;;3.29;100.00;102932.56;10376109;28;20076;-70
2022/03/24 02:12:57;;;;;;;82.90;45.33;;;;;;;3.28;100.00;102930.88;10374859;28;20026;-70
2022/03/24 02:17:57;;;;;;;83.10;46.22;;;;;;;3.26;100.00;102941.06;10358722;28;20429;-70
2022/03/24 02:22:58;;;;;;;92.43;47.80;;;;;;;3.18;100.00;102930.94;10413038;28;20030;-70
2022/03/24 02:28:01;;;;;;;86.07;47.60;;;;;;;3.07;100.00;102923.03;10414354;28;20067;-70
2022/03/24 02:33:02;;;;;;;90.80;49.50;;;;;;;2.99;100.00;102924.63;10431436;28;20041;-70
2022/03/24 02:38:02;;;;;;;92.78;49.55;;;;;;;3.03;100.00;102934.19;10415013;28;20029;-70
2022/03/24 02:43:03;;;;;;;88.13;48.60;;;;;;;2.97;100.00;102923.09;10414446;28;20025;-69
2022/03/24 02:48:04;;;;;;;100.30;49.03;;;;;;;2.82;100.00;102909.16;10398859;28;20109;-69
2022/03/24 02:53:05;;;;;;;100.53;50.85;;;;;;;2.83;100.00;102913.56;10373366;28;20385;-69
2022/03/24 02:58:05;;;;;;;90.93;50.20;;;;;;;2.79;100.00;102912.16;10389869;28;20034;-69
2022/03/24 03:03:06;;;;;;;94.05;52.13;;;;;;;2.78;100.00;102913.19;10363025;28;20054;-69
2022/03/24 03:08:07;;;;;;;97.47;50.78;;;;;;;2.74;100.00;102918.06;10372910;28;20061;-69
2022/03/24 03:13:08;;;;;;;101.57;52.88;;;;;;;2.71;100.00;102920.22;10388628;28;20029;-69
2022/03/24 03:18:09;;;;;;;100.90;50.92;;;;;;;2.56;100.00;102907.16;10388804;28;20038;-69
2022/03/24 03:23:09;;;;;;;92.10;48.25;;;;;;;2.27;100.00;102865.66;10371240;28;20115;-69
2022/03/24 03:28:10;;;;;;;94.82;49.53;;;;;;;2.49;100.00;102919.63;10394971;28;20143;-69
2022/03/24 03:33:10;;;;;;;100.95;51.58;;;;;;;2.51;100.00;102919.50;10412046;28;20099;-69
2022/03/24 03:38:11;;;;;;;95.45;49.97;;;;;;;2.51;100.00;102922.22;10395710;28;20037;-69
2022/03/24 03:43:14;;;;;;;96.30;46.72;;;;;;;2.47;100.00;102927.09;10399231;28;20053;-69
2022/03/24 03:48:14;;;;;;;96.10;51.97;;;;;;;2.39;100.00;102918.81;10412448;28;20029;-69
2022/03/24 03:53:15;;;;;;;100.20;52.17;;;;;;;2.25;100.00;102906.56;10395834;28;20072;-69
2022/03/24 03:58:15;;;;;;;111.10;55.08;;;;;;;2.33;100.00;102923.00;10412454;28;20029;-69
2022/03/24 04:03:16;;;;;;;102.82;53.30;;;;;;;2.28;100.00;102921.75;10395426;28;20416;-69
2022/03/24 04:08:16;;;;;;;104.82;52.35;;;;;;;2.20;100.00;102912.47;10395491;28;20041;-69
2022/03/24 04:13:21;;;;;;;111.72;54.38;;;;;;;2.18;100.00;102914.47;10411743;28;20030;-69
2022/03/24 04:18:22;;;;;;;112.22;55.70;;;;;;;2.23;100.00;102924.88;10419638;28;20025;-69
2022/03/24 04:23:22;;;;;;;115.75;57.38;;;;;;;2.18;100.00;102922.63;10354102;28;20141;-69
2022/03/24 04:28:23;;;;;;;109.25;56.00;;;;;;;2.18;100.00;102924.50;10355170;28;20030;-69
2022/03/24 04:33:23;;;;;;;111.90;57.22;;;;;;;2.15;100.00;102922.94;10371805;28;20045;-69
2022/03/24 04:38:24;;;;;;;115.18;59.70;;;;;;;2.08;100.00;102919.09;10362145;28;20030;-69
2022/03/24 04:43:25;;;;;;;114.63;56.65;;;;;;;2.07;100.00;102930.97;10362366;28;20041;-69
2022/03/24 04:48:25;;;;;;;116.25;59.90;;;;;;;2.06;100.00;102928.41;10394910;28;20084;-70
2022/03/24 04:53:25;;;;;;;125.07;59.38;;;;;;;2.02;100.00;102927.81;10344853;28;20041;-69
2022/03/24 04:58:26;;;;;;;121.05;59.45;;;;;;;1.94;100.00;102920.44;10361649;28;20026;-69
2022/03/24 05:03:28;;;;;;;118.72;58.40;;;;;;;2.01;100.00;102931.56;10372985;28;20297;-69
2022/03/24 05:08:28;;;;;;;112.15;57.78;;;;;;;1.88;100.00;102914.72;10378041;28;20085;-69
2022/03/24 05:13:29;;;;;;;122.40;62.10;;;;;;;1.97;100.00;102935.56;10377565;28;20041;-70
2022/03/24 05:18:29;;;;;;;122.35;58.33;;;;;;;1.92;100.00;102924.28;10381201;28;20032;-69
2022/03/24 05:23:30;;;;;;;115.78;57.50;;;;;;;1.83;100.00;102917.03;10435600;28;20042;-69
2022/03/24 05:28:31;;;;;;;111.93;55.88;;;;;;;1.80;100.00;102923.63;10418075;28;20029;-69
2022/03/24 05:33:33;;;;;;;123.63;61.42;;;;;;;1.77;100.00;102924.72;10409673;28;20045;-69
2022/03/24 05:38:33;;;;;;;119.20;57.72;;;;;;;1.72;100.00;102918.91;10393913;28;20034;-70
2022/03/24 05:43:34;;;;;;;122.90;59.78;;;;;;;1.80;100.00;102929.03;10394024;28;20026;-70
2022/03/24 05:48:34;;;;;;;115.38;59.40;;;;;;;1.86;100.00;102923.03;10358760;28;20076;-69
2022/03/24 05:53:35;;;;;;;128.75;60.03;;;;;;;1.97;100.00;102933.72;10358782;28;20556;-70
2022/03/24 05:58:35;;;;;;;124.80;61.50;;;;;;;1.99;100.00;102922.69;10376026;28;20413;-70
2022/03/24 06:03:36;;;;;;;133.70;63.72;;;;;;;2.17;100.00;102942.66;10375251;28;20069;-70
2022/03/24 06:08:37;;;;;;;125.97;62.53;;;;;;;2.28;100.00;102943.50;10358695;28;20128;-70
2022/03/24 06:13:37;;;;;;;142.05;64.15;;;;;;;2.37;100.00;102942.59;10375478;28;20048;-70
2022/03/24 06:18:39;;;;;;;131.48;63.28;;;;;;;2.46;100.00;102935.38;10358875;28;20030;-70
2022/03/24 06:23:39;;;;;;;127.43;63.85;;;;;;;2.68;100.00;102939.59;10374618;28;20063;-70
2022/03/24 06:28:41;;;;;;;127.97;66.00;;;;;;;2.95;100.00;102936.84;10342057;28;20045;-70
2022/03/24 06:33:42;;;;;;;124.32;63.90;;;;;;;3.23;100.00;102936.78;10399045;28;20498;-70
2022/03/24 06:38:43;;;;;;;120.82;59.95;;;;;;;3.56;100.00;102939.84;10430998;28;20037;-70
2022/03/24 06:43:43;;;;;;;115.22;62.22;;;;;;;3.86;100.00;102940.38;10431040;28;20041;-70
2022/03/24 06:48:44;;;;;;;109.57;58.30;;;;;;;4.15;100.00;102946.38;10414457;28;20025;-70
2022/03/24 06:53:44;;;;;;;108.75;58.65;;;;;;;4.47;100.00;102947.59;10388678;28;20072;-70
2022/03/24 06:58:45;;;;;;;101.75;57.63;;;;;;;4.72;100.00;102942.25;10390197;28;20025;-70
2022/03/24 07:03:46;;;;;;;91.63;52.78;;;;;;;5.08;100.00;102952.94;10354344;28;20089;-69
2022/03/24 07:08:46;;;;;;;93.32;52.53;;;;;;;5.35;100.00;102949.03;10356044;28;20478;-70
2022/03/24 07:13:46;;;;;;;87.72;48.58;;;;;;;5.59;100.00;102950.97;10389248;28;20116;-70
2022/03/24 07:18:47;;;;;;;93.60;47.90;;;;;;;5.83;100.00;102956.41;10396480;28;20041;-69
2022/03/24 07:23:47;;;;;;;82.22;45.42;;;;;;;6.11;100.00;102947.88;10424581;28;20038;-69
2022/03/24 07:28:48;;;;;;;76.68;42.03;;;;;;;6.27;100.00;102930.56;10356658;28;20038;-69
2022/03/24 07:33:49;;;;;;;73.28;41.35;;;;;;;6.65;100.00;102947.19;10387733;28;20080;-69
2022/03/24 07:38:50;;;;;;;74.72;40.13;;;;;;;6.84;100.00;102938.56;10355278;28;20026;-70
2022/03/24 07:43:50;;;;;;;66.30;38.80;;;;;;;7.09;100.00;102960.34;10371787;28;20113;-69
2022/03/24 07:48:51;;;;;;;65.10;37.15;;;;;;;7.23;100.00;102953.22;10355503;28;20034;-69
2022/03/24 07:53:55;;;;;;;62.75;35.70;;;;;;;7.34;100.00;102940.97;10385523;28;20045;-69
2022/03/24 07:58:55;;;;;;;61.30;33.53;;;;;;;7.44;100.00;102942.47;10388682;28;20080;-69
2022/03/24 08:03:57;;;;;;;56.58;32.92;;;;;;;7.66;100.00;102961.81;10370523;28;20113;-69
2022/03/24 08:08:58;;;;;;;58.03;31.83;;;;;;;7.71;100.00;102944.81;10386419;28;20038;-69
2022/03/24 08:13:59;;;;;;;56.55;30.23;;;;;;;7.95;100.00;102957.47;10386679;28;20432;-69
2022/03/24 08:18:59;;;;;;;52.50;30.73;;;;;;;8.09;100.00;102959.38;10415562;28;20116;-69
2022/03/24 08:23:59;;;;;;;47.30;29.17;;;;;;;8.29;100.00;102974.25;10413166;28;20036;-69
2022/03/24 08:29:00;;;;;;;67.10;31.15;;;;;;;8.44;100.00;102965.22;10415519;28;20018;-69
2022/03/24 08:34:00;;;;;;;64.38;35.10;;;;;;;8.68;100.00;102967.69;10430721;28;20051;-69
2022/03/24 08:39:01;;;;;;;54.70;30.33;;;;;;;8.88;100.00;102956.09;10437184;28;20051;-69
2022/03/24 08:44:01;;;;;;;55.28;32.33;;;;;;;9.17;100.00;102966.16;10358245;28;20482;-71
2022/03/24 08:49:02;;;;;;;53.92;29.00;;;;;;;9.46;100.00;102954.22;10369247;28;20040;-68
2022/03/24 08:54:03;;;;;;;47.90;27.60;;;;;;;9.80;100.00;102960.06;10427651;28;20022;-69
2022/03/24 08:59:04;;;;;;;47.05;27.27;;;;;;;10.09;100.00;102959.03;10399037;28;20118;-70
2022/03/24 09:04:05;;;;;;;57.13;29.17;;;;;;;10.41;100.00;102951.22;10377801;28;20061;-68
2022/03/24 09:09:05;;;;;;;51.05;27.48;;;;;;;10.81;100.00;102959.69;10418089;28;20046;-68
2022/03/24 09:14:06;;;;;;;56.08;31.42;;;;;;;11.14;100.00;102954.31;10434923;28;20330;-68
2022/03/24 09:19:06;;;;;;;52.85;29.77;;;;;;;11.62;100.00;102968.00;10433820;28;20029;-68
2022/03/24 09:24:08;;;;;;;47.55;26.70;;;;;;;11.90;98.89;102939.38;10393411;28;20045;-68
2022/03/24 09:29:10;;;;;;;44.47;22.13;;;;;;;12.34;85.47;102928.69;10399354;28;20241;-68
2022/03/24 09:34:10;;;;;;;52.08;26.13;;;;;;;12.46;82.15;102922.31;10379255;28;20029;-69
2022/03/24 09:39:11;;;;;;;38.83;23.38;;;;;;;12.70;82.28;102940.06;10360130;28;20037;-69
2022/03/24 09:44:11;;;;;;;41.50;24.45;;;;;;;13.15;81.27;102938.38;10375999;28;20570;-68
2022/03/24 09:49:12;;;;;;;48.75;26.92;;;;;;;13.41;79.38;102934.63;10416711;28;20065;-69
2022/03/24 09:54:12;;;;;;;41.65;23.85;;;;;;;13.66;78.89;102938.31;10435397;28;20030;-68
2022/03/24 09:59:13;;;;;;;39.95;25.08;;;;;;;13.91;76.83;102941.06;10433743;28;20093;-69
2022/03/24 10:04:18;;;;;;;44.92;26.38;;;;;;;14.06;77.39;102935.19;10385252;28;20057;-68
2022/03/24 10:09:33;;;;;;;49.08;26.08;;;;;;;14.38;76.83;102939.75;10413454;28;20091;-69
2022/03/24 10:14:34;;;;;;;41.13;26.40;;;;;;;14.62;76.02;102930.56;10430117;28;20018;-69
2022/03/24 10:19:35;;;;;;;46.40;26.90;;;;;;;14.82;75.16;102926.69;10419818;28;20089;-69
2022/03/24 10:24:42;;;;;;;49.00;28.23;;;;;;;14.96;75.81;102919.06;10449256;28;20493;-69
2022/03/24 10:29:46;;;;;;;45.88;29.17;;;;;;;15.24;74.92;102927.63;10429418;28;20052;-69
2022/03/24 10:34:48;;;;;;;46.03;28.55;;;;;;;15.39;74.03;102935.50;10451489;28;20021;-69
2022/03/24 10:39:59;;;;;;;43.05;27.30;;;;;;;15.67;71.42;102928.47;10416329;28;20021;-70
2022/03/24 10:45:07;;;;;;;43.30;25.90;;;;;;;15.90;72.96;102936.03;10426763;28;20038;-69
2022/03/24 10:50:39;;;;;;;49.20;27.33;;;;;;;16.19;69.75;102920.31;10389079;28;20029;-73
2022/03/24 10:55:43;;;;;;;47.40;27.73;;;;;;;16.46;70.02;102923.44;10375151;28;20038;-68
2022/03/24 11:00:44;;;;;;;44.20;26.42;;;;;;;16.54;67.11;102899.97;10388550;28;20058;-69
2022/03/24 11:05:45;;;;;;;46.28;27.00;;;;;;;16.90;67.24;102896.00;10388481;28;20045;-69
2022/03/24 11:10:47;;;;;;;44.55;27.27;;;;;;;17.09;65.78;102891.06;10393347;28;20037;-69
2022/03/24 11:15:48;;;;;;;44.92;26.70;;;;;;;17.35;63.41;102888.78;10413169;28;20485;-69
2022/03/24 11:20:49;;;;;;;44.35;26.92;;;;;;;17.34;64.59;102889.84;10413976;28;20022;-69
2022/03/24 11:25:53;;;;;;;37.78;23.55;;;;;;;17.51;63.45;102879.59;10396836;28;20109;-69
2022/03/24 11:30:53;;;;;;;41.45;27.33;;;;;;;17.88;62.23;102890.25;10399904;28;20034;-69
2022/03/24 11:35:54;;;;;;;42.75;26.83;;;;;;;18.19;60.76;102882.38;10428946;28;20097;-69
2022/03/24 11:40:55;;;;;;;44.63;26.27;;;;;;;18.45;61.02;102879.91;10448778;28;20032;-69
2022/03/24 11:46:02;;;;;;;44.42;25.40;;;;;;;18.47;59.11;102861.81;10415380;28;20029;-68
2022/03/24 11:51:06;;;;;;;;;;;;;;;18.75;57.69;102865.50;10434426;28;20037;-69
2022/03/24 11:56:13;;;;;;;43.20;25.40;;;;;;;18.89;56.22;102849.22;10422407;28;20363;-69
2022/03/24 12:01:17;;;;;;;33.45;22.40;;;;;;;19.04;52.46;102840.16;10427642;28;20033;-70
2022/03/24 12:06:18;;;;;;;38.85;24.67;;;;;;;19.52;54.37;102839.19;10394810;28;20046;-71
2022/03/24 12:12:07;;;;;;;34.88;21.88;;;;;;;20.12;50.13;102827.88;10371456;28;20098;-71
2022/03/24 12:17:14;;;;;;;;;;;;;;;21.11;47.59;102808.34;10382124;28;20069;-72
2022/03/24 12:22:28;;;;;;;30.88;20.73;;;;;;;21.90;43.25;102800.44;10386946;28;19917;-71
2022/03/24 12:27:30;;;;;;;38.03;23.15;;;;;;;22.47;43.04;102801.06;10389303;28;20026;-71
2022/03/24 12:32:32;;;;;;;30.08;20.52;;;;;;;23.13;39.46;102769.78;10392506;28;20096;-65
2022/03/24 12:37:32;;;;;;;34.65;22.45;;;;;;;23.26;38.33;102778.66;10386843;28;20030;-65
2022/03/24 12:42:46;;;;;;;29.00;21.57;;;;;;;23.80;38.57;102780.41;10386280;28;20049;-65
2022/03/24 12:47:47;;;;;;;37.55;21.45;;;;;;;24.05;35.88;102761.53;10387866;28;20277;-66
2022/03/24 12:52:48;;;;;;;37.78;22.13;;;;;;;23.66;35.58;102768.97;10386325;28;20052;-68
2022/03/24 12:57:57;;;;;;;34.42;24.08;;;;;;;23.09;36.99;102770.63;10405499;28;20075;-69
2022/03/24 13:02:58;;;;;;;36.42;22.48;;;;;;;23.90;36.02;102752.16;10432822;28;20069;-68
2022/03/24 13:08:01;;;;;;;37.35;23.15;;;;;;;23.14;40.19;102788.31;10434825;28;20484;-67
2022/03/24 13:13:03;;;;;;;41.40;29.35;;;;;;;23.86;39.63;102779.19;10411547;28;20424;-69
2022/03/24 13:18:05;;;;;;;48.22;31.63;;;;;;;23.18;41.46;102771.69;10417584;28;20112;-70
2022/03/24 13:23:09;;;;;;;49.63;32.42;;;;;;;22.45;42.55;102780.88;10434066;28;20025;-71
2022/03/24 13:28:10;;;;;;;58.58;37.33;;;;;;;22.76;44.28;102796.41;10406012;28;20033;-70
2022/03/24 13:33:11;;;;;;;58.97;37.97;;;;;;;22.71;43.67;102785.22;10386304;28;20265;-71
2022/03/24 13:38:13;;;;;;;52.95;37.35;;;;;;;22.74;43.61;102773.41;10433232;28;20117;-72
2022/03/24 13:43:14;;;;;;;53.42;37.33;;;;;;;23.06;42.63;102783.31;10435043;28;20041;-69
2022/03/24 13:48:17;;;;;;;50.88;36.92;;;;;;;22.91;42.98;102781.44;10433266;28;20029;-68
2022/03/24 13:53:19;;;;;;;62.95;38.60;;;;;;;22.35;42.93;102784.59;10399419;28;20033;-69
2022/03/24 13:58:19;;;;;;;49.55;35.33;;;;;;;22.12;43.86;102774.84;10415557;28;20068;-67
2022/03/24 14:03:23;;;;;;;56.22;36.67;;;;;;;22.07;42.82;102760.84;10391634;28;20054;-72
2022/03/24 14:08:25;;;;;;;48.60;34.88;;;;;;;22.46;41.94;102765.72;10390480;28;20036;-71
2022/03/24 14:13:27;;;;;;;51.92;33.95;;;;;;;22.07;40.46;102746.81;10407379;28;20042;-67
2022/03/24 14:18:28;;;;;;;53.40;33.65;;;;;;;22.12;42.96;102769.25;10390056;28;20132;-69
2022/03/24 14:23:31;;;;;;;49.28;33.03;;;;;;;22.43;41.05;102755.06;10390038;28;20056;-70
2022/03/24 14:28:36;;;;;;;52.80;35.40;;;;;;;22.06;41.04;102747.94;10390865;28;20045;-69
2022/03/24 14:33:44;;;;;;;48.90;34.47;;;;;;;22.27;43.56;102746.75;10389807;28;20038;-69
2022/03/24 14:39:18;;;;;;;49.85;36.85;;;;;;;22.21;41.09;102745.06;10402346;28;20208;-68
2022/03/24 14:44:19;;;;;;;54.83;36.92;;;;;;;22.14;40.84;102733.31;10441911;28;20041;-68
2022/03/24 14:49:20;;;;;;;53.70;36.92;;;;;;;21.98;41.45;102740.97;10450472;28;20139;-67
2022/03/24 14:54:21;;;;;;;50.65;35.85;;;;;;;21.79;39.88;102723.94;10414561;28;20131;-69
2022/03/24 14:59:21;;;;;;;50.67;33.78;;;;;;;21.13;39.86;102717.31;10449256;28;20648;-66
2022/03/24 15:04:22;;;;;;;48.75;33.88;;;;;;;21.35;41.73;102733.81;10388674;28;20077;-69
2022/03/24 15:09:22;;;;;;;51.92;33.97;;;;;;;21.33;39.80;102721.19;10390396;28;20137;-67
2022/03/24 15:19:42;;;;;;;44.70;31.95;;;;;;;21.11;40.58;102741.13;10388044;28;20060;-68
2022/03/24 15:24:43;;;;;;;45.58;29.65;;;;;;;20.31;39.03;102677.22;10389335;28;20038;-70
2022/03/24 15:29:43;;;;;;;45.97;31.42;;;;;;;20.60;39.79;102727.09;10371959;28;20446;-70
2022/03/24 15:34:44;;;;;;;42.53;28.52;;;;;;;20.50;40.43;102728.72;10435126;28;20037;-69
2022/03/24 15:39:44;;;;;;;37.30;26.33;;;;;;;20.59;38.18;102717.88;10448854;28;20076;-69
2022/03/24 15:44:45;;;;;;;34.75;23.30;;;;;;;20.20;36.35;102712.72;10447124;28;20025;-69
2022/03/24 15:49:46;;;;;;;42.17;29.58;;;;;;;20.01;38.08;102714.28;10461181;28;20367;-70
2022/03/24 15:54:46;;;;;;;41.70;28.63;;;;;;;20.15;40.26;102737.84;10356045;28;20026;-69
2022/03/24 15:59:46;;;;;;;44.08;29.02;;;;;;;19.15;39.36;102728.31;10388005;28;20037;-72
2022/03/24 16:04:47;;;;;;;44.83;29.42;;;;;;;19.13;39.75;102726.91;10386976;28;20565;-68
2022/03/24 16:09:47;;;;;;;48.00;29.65;;;;;;;19.00;40.72;102744.94;10387371;28;20445;-69
2022/03/24 16:14:48;;;;;;;47.92;31.67;;;;;;;19.13;41.23;102749.22;10388788;28;20026;-69
2022/03/24 16:19:48;;;;;;;49.85;31.58;;;;;;;17.98;40.23;102736.28;10406385;28;20064;-69
2022/03/24 16:24:49;;;;;;;41.88;28.95;;;;;;;16.53;41.20;102748.13;10427706;28;20096;-70
2022/03/24 16:29:49;;;;;;;42.33;30.20;;;;;;;15.53;45.08;102773.22;10430513;28;20064;-69
2022/03/24 16:34:50;;;;;;;47.80;32.40;;;;;;;14.75;44.66;102762.34;10383321;28;20034;-69
2022/03/24 16:39:50;;;;;;;44.60;30.02;;;;;;;13.69;43.07;102683.19;10377657;28;20046;-68
2022/03/24 16:44:52;;;;;;;45.78;29.88;;;;;;;13.63;44.31;102772.66;10378106;28;20042;-69
2022/03/24 16:49:53;;;;;;;55.10;34.03;;;;;;;13.17;48.93;102775.81;10405903;28;20029;-69
2022/03/24 16:54:53;;;;;;;52.17;34.25;;;;;;;13.05;48.89;102798.69;10454990;28;20068;-69
2022/03/24 16:59:53;;;;;;;53.60;34.55;;;;;;;12.79;51.81;102809.91;10400947;28;20029;-69
2022/03/24 17:04:55;;;;;;;53.92;33.75;;;;;;;12.52;52.27;102815.59;10413591;28;20058;-69
2022/03/24 17:09:55;;;;;;;57.33;35.47;;;;;;;12.17;54.19;102821.47;10433707;28;20034;-69
2022/03/24 17:14:58;;;;;;;58.55;36.40;;;;;;;11.88;55.71;102826.41;10401047;28;20099;-69
2022/03/24 17:19:58;;;;;;;61.50;36.97;;;;;;;11.50;56.24;102835.34;10434585;28;20048;-71
2022/03/24 17:24:59;;;;;;;63.22;37.95;;;;;;;11.14;59.26;102838.53;10396294;28;20053;-72
2022/03/24 17:30:00;;;;;;;65.60;39.28;;;;;;;10.80;62.15;102828.50;10375940;28;20042;-69
2022/03/24 17:35:00;;;;;;;60.92;37.97;;;;;;;10.62;64.19;102853.84;10392281;28;20069;-69
2022/03/24 17:40:05;;;;;;;67.35;40.55;;;;;;;10.33;67.14;102871.53;10417731;28;20061;-69
2022/03/24 17:45:07;;;;;;;69.22;39.58;;;;;;;10.04;71.84;102865.19;10431747;28;20112;-70
2022/03/24 17:50:10;;;;;;;67.78;40.33;;;;;;;9.80;76.51;102878.38;10411605;28;20144;-69
2022/03/24 17:55:12;;;;;;;72.85;42.03;;;;;;;9.55;81.50;102880.72;10412343;28;20493;-69
2022/03/24 18:00:15;;;;;;;71.80;42.90;;;;;;;9.28;88.63;102880.47;10412501;28;20048;-69
2022/03/24 18:05:15;;;;;;;87.57;47.95;;;;;;;9.14;98.01;102900.63;10414388;28;20060;-69
2022/03/24 18:10:16;;;;;;;86.43;47.88;;;;;;;8.79;100.00;102886.69;10411907;28;20044;-69
2022/03/24 18:15:16;;;;;;;85.65;48.00;;;;;;;8.69;100.00;102900.72;10398394;28;20112;-69
2022/03/24 18:20:17;;;;;;;90.35;50.88;;;;;;;8.21;100.00;102859.09;10431478;28;20021;-69
2022/03/24 18:25:17;;;;;;;82.00;47.20;;;;;;;8.35;100.00;102908.66;10412305;28;20029;-70
2022/03/24 18:30:18;;;;;;;77.55;44.88;;;;;;;8.12;100.00;102895.88;10431722;28;20025;-70
2022/03/24 18:35:18;;;;;;;71.47;42.17;;;;;;;7.80;100.00;102859.56;10417971;28;20037;-70
2022/03/24 18:40:19;;;;;;;77.05;45.40;;;;;;;7.97;100.00;102908.75;10413870;28;20318;-70
2022/03/24 18:45:19;;;;;;;79.93;46.50;;;;;;;7.79;100.00;102904.50;10398741;28;20037;-69
2022/03/24 18:50:21;;;;;;;84.22;46.78;;;;;;;7.77;100.00;102924.88;10414819;28;20025;-69
2022/03/24 18:55:23;;;;;;;92.20;54.83;;;;;;;7.63;100.00;102930.16;10430356;28;20037;-69
2022/03/24 19:00:24;;;;;;;93.00;54.97;;;;;;;7.50;100.00;102929.06;10414423;28;20072;-70
2022/03/24 19:05:27;;;;;;;100.68;54.75;;;;;;;7.36;100.00;102923.34;10429805;28;20080;-70
2022/03/24 19:10:28;;;;;;;96.85;53.05;;;;;;;7.33;100.00;102923.69;10413317;28;20040;-70
2022/03/24 19:15:29;;;;;;;94.13;52.60;;;;;;;7.29;100.00;102938.78;10430817;28;20036;-69
2022/03/24 19:20:29;;;;;;;92.57;50.50;;;;;;;7.20;100.00;102926.19;10413554;28;20299;-69
2022/03/24 19:25:30;;;;;;;93.57;52.08;;;;;;;6.95;100.00;102898.97;10429258;28;20072;-71
2022/03/24 19:30:30;;;;;;;98.13;51.90;;;;;;;7.04;100.00;102924.41;10396380;28;20030;-71
2022/03/24 19:35:31;;;;;;;94.68;49.75;;;;;;;6.89;100.00;102916.13;10395809;28;20029;-70
2022/03/24 19:40:31;;;;;;;91.88;48.55;;;;;;;6.84;100.00;102921.25;10395417;28;20159;-72
2022/03/24 19:45:32;;;;;;;89.40;48.05;;;;;;;6.80;100.00;102925.38;10396449;28;20037;-69
2022/03/24 19:50:33;;;;;;;81.22;45.78;;;;;;;6.75;100.00;102930.56;10412387;28;20470;-69
2022/03/24 19:55:34;;;;;;;88.75;48.97;;;;;;;6.66;100.00;102944.28;10410791;28;20064;-69
2022/03/24 20:00:34;;;;;;;93.72;52.28;;;;;;;6.62;100.00;102942.94;10410723;28;20121;-71
2022/03/24 20:05:35;;;;;;;93.20;50.58;;;;;;;6.46;100.00;102929.31;10409388;28;20046;-69
2022/03/24 20:10:35;;;;;;;106.50;52.90;;;;;;;6.44;100.00;102947.78;10393818;28;20078;-69
2022/03/24 20:15:36;;;;;;;106.60;54.08;;;;;;;6.44;100.00;102945.06;10395353;28;20036;-70
2022/03/24 20:20:36;;;;;;;102.70;54.38;;;;;;;6.33;100.00;102942.69;10411673;28;20052;-69
2022/03/24 20:25:37;;;;;;;109.93;58.97;;;;;;;6.30;100.00;102953.97;10411099;28;20038;-71
2022/03/24 20:30:37;;;;;;;115.53;59.83;;;;;;;6.20;100.00;102963.25;10394498;28;20046;-71
2022/03/24 20:35:38;;;;;;;117.40;59.38;;;;;;;6.13;100.00;102970.44;10411052;28;20040;-71
2022/03/24 20:40:38;;;;;;;123.85;61.33;;;;;;;6.02;100.00;102968.91;10410745;28;20687;-71
2022/03/24 20:45:40;;;;;;;126.55;60.33;;;;;;;5.84;100.00;102963.59;10428146;28;20056;-71
2022/03/24 20:50:42;;;;;;;124.50;62.72;;;;;;;5.88;100.00;102971.47;10427332;28;20051;-69
2022/03/24 20:55:42;;;;;;;130.38;65.43;;;;;;;5.77;100.00;102981.72;10426715;28;20462;-70
2022/03/24 21:00:43;;;;;;;137.55;66.47;;;;;;;5.64;100.00;102973.16;10410224;28;20029;-70
2022/03/24 21:05:43;;;;;;;145.95;71.57;;;;;;;5.68;100.00;102982.72;10426111;28;20052;-70
2022/03/24 21:10:44;;;;;;;144.50;71.63;;;;;;;5.65;100.00;102989.38;10393497;28;20033;-69
2022/03/24 21:15:44;;;;;;;131.68;66.68;;;;;;;5.60;100.00;102985.44;10426379;28;20029;-69
2022/03/24 21:20:46;;;;;;;129.77;68.70;;;;;;;5.57;100.00;102980.34;10390346;28;20398;-69
2022/03/24 21:25:47;;;;;;;163.45;72.13;;;;;;;5.58;100.00;102976.56;10392773;28;20172;-70
2022/03/24 21:30:47;;;;;;;138.50;70.05;;;;;;;4.59;100.00;102822.69;10392715;28;20080;-69
2022/03/24 21:35:47;;;;;;;141.57;68.18;;;;;;;5.41;100.00;102978.41;10393841;28;20038;-70
2022/03/24 21:40:48;;;;;;;143.43;68.60;;;;;;;5.34;100.00;102974.66;10376272;28;20029;-69
2022/03/24 21:45:49;;;;;;;139.70;70.72;;;;;;;5.29;100.00;102993.41;10393034;28;20041;-70
2022/03/24 21:50:50;;;;;;;142.88;68.22;;;;;;;5.18;100.00;102998.16;10376065;28;20053;-70
2022/03/24 21:55:50;;;;;;;141.65;69.30;;;;;;;5.05;100.00;103004.09;10375254;28;20036;-70
2022/03/24 22:00:51;;;;;;;159.15;73.25;;;;;;;5.00;100.00;103009.22;10375163;28;20034;-69
2022/03/24 22:05:51;;;;;;;148.15;70.70;;;;;;;4.89;100.00;103008.66;10358892;28;20042;-70
2022/03/24 22:10:52;;;;;;;148.70;72.15;;;;;;;4.83;100.00;103015.63;10375160;28;20102;-70
2022/03/24 22:15:52;;;;;;;158.25;73.45;;;;;;;4.83;100.00;103016.47;10392197;28;20026;-70
2022/03/24 22:20:53;;;;;;;151.80;70.28;;;;;;;4.75;100.00;103012.84;10391257;28;20026;-70
2022/03/24 22:25:54;;;;;;;148.23;69.88;;;;;;;4.65;100.00;103016.56;10406714;28;20048;-70
2022/03/24 22:30:55;;;;;;;156.68;72.70;;;;;;;4.53;100.00;103006.94;10380066;28;20068;-70
2022/03/24 22:35:55;;;;;;;152.00;71.47;;;;;;;4.53;100.00;103015.13;10373598;28;20034;-70